sensor_id;sensor_type;location;lat;lon;timestamp;pressure;altitude;pressure_sealevel;temperature;humidity
46955;BME280;32708;51.212;6.788;2023-07-31T00:01:47;100557.75;;;25.31;92.17
46955;BME280;32708;51.212;6.788;2023-07-31T00:04:13;100545.06;;;25.27;93.20
46955;BME280;32708;51.212;6.788;2023-07-31T00:06:39;100554.81;;;24.88;94.27
46955;BME280;32708;51.212;6.788;2023-07-31T00:09:05;100551.16;;;25.45;92.33
46955;BME280;32708;51.212;6.788;2023-07-31T00:11:31;100549.38;;;25.31;92.26
46955;BME280;32708;51.212;6.788;2023-07-31T00:13:58;100556.78;;;25.18;91.78
46955;BME280;32708;51.212;6.788;2023-07-31T00:16:24;100565.50;;;25.20;93.13
46955;BME280;32708;51.212;6.788;2023-07-31T00:18:53;100543.00;;;25.77;89.78
46955;BME280;32708;51.212;6.788;2023-07-31T00:21:19;100556.19;;;25.30;91.11
46955;BME280;32708;51.212;6.788;2023-07-31T00:23:45;100543.03;;;26.17;87.81
46955;BME280;32708;51.212;6.788;2023-07-31T00:26:12;100552.06;;;26.25;88.38
46955;BME280;32708;51.212;6.788;2023-07-31T00:28:38;100558.06;;;25.84;88.67
46955;BME280;32708;51.212;6.788;2023-07-31T00:31:04;100543.81;;;26.38;87.59
46955;BME280;32708;51.212;6.788;2023-07-31T00:33:31;100560.75;;;25.67;89.70
46955;BME280;32708;51.212;6.788;2023-07-31T00:35:58;100545.25;;;25.86;87.69
46955;BME280;32708;51.212;6.788;2023-07-31T00:38:25;100539.63;;;25.63;88.75
46955;BME280;32708;51.212;6.788;2023-07-31T00:40:52;100547.13;;;25.69;89.02
46955;BME280;32708;51.212;6.788;2023-07-31T00:43:19;100548.03;;;25.63;89.21
46955;BME280;32708;51.212;6.788;2023-07-31T00:45:45;100542.31;;;25.93;87.43
46955;BME280;32708;51.212;6.788;2023-07-31T00:48:11;100548.03;;;25.39;89.15
46955;BME280;32708;51.212;6.788;2023-07-31T00:50:38;100538.09;;;25.38;88.92
46955;BME280;32708;51.212;6.788;2023-07-31T00:53:05;100535.22;;;26.09;86.58
46955;BME280;32708;51.212;6.788;2023-07-31T00:55:33;100526.81;;;25.89;85.88
46955;BME280;32708;51.212;6.788;2023-07-31T00:58:00;100540.75;;;25.45;88.40
46955;BME280;32708;51.212;6.788;2023-07-31T01:00:26;100533.88;;;26.73;83.95
46955;BME280;32708;51.212;6.788;2023-07-31T01:02:52;100522.13;;;26.22;85.21
46955;BME280;32708;51.212;6.788;2023-07-31T01:05:36;100526.53;;;26.43;85.50
46955;BME280;32708;51.212;6.788;2023-07-31T01:08:32;100521.88;;;25.96;85.72
46955;BME280;32708;51.212;6.788;2023-07-31T01:12:02;100520.84;;;26.46;83.88
46955;BME280;32708;51.212;6.788;2023-07-31T01:14:03;100518.00;;;26.30;84.10
46955;BME280;32708;51.212;6.788;2023-07-31T01:16:29;100515.84;;;25.98;86.24
46955;BME280;32708;51.212;6.788;2023-07-31T01:18:55;100524.94;;;25.59;87.01
46955;BME280;32708;51.212;6.788;2023-07-31T01:25:01;100518.25;;;26.35;85.36
46955;BME280;32708;51.212;6.788;2023-07-31T01:27:52;100510.03;;;26.09;84.36
46955;BME280;32708;51.212;6.788;2023-07-31T01:30:28;100515.63;;;25.89;85.21
46955;BME280;32708;51.212;6.788;2023-07-31T01:32:57;100511.94;;;25.48;86.41
46955;BME280;32708;51.212;6.788;2023-07-31T01:35:23;100521.19;;;25.45;87.03
46955;BME280;32708;51.212;6.788;2023-07-31T01:37:53;100523.88;;;25.29;86.89
46955;BME280;32708;51.212;6.788;2023-07-31T01:40:20;100518.69;;;26.34;83.31
46955;BME280;32708;51.212;6.788;2023-07-31T01:42:46;100521.63;;;26.07;84.20
46955;BME280;32708;51.212;6.788;2023-07-31T01:45:14;100523.50;;;26.14;84.09
46955;BME280;32708;51.212;6.788;2023-07-31T01:47:40;100519.88;;;26.17;82.83
46955;BME280;32708;51.212;6.788;2023-07-31T01:50:07;100510.66;;;25.06;86.15
46955;BME280;32708;51.212;6.788;2023-07-31T01:52:33;100490.88;;;25.64;83.54
46955;BME280;32708;51.212;6.788;2023-07-31T01:54:59;100502.03;;;26.27;80.30
46955;BME280;32708;51.212;6.788;2023-07-31T01:57:25;100513.66;;;25.86;82.92
46955;BME280;32708;51.212;6.788;2023-07-31T01:59:51;100501.06;;;26.17;81.47
46955;BME280;32708;51.212;6.788;2023-07-31T02:02:20;100501.50;;;26.88;79.37
46955;BME280;32708;51.212;6.788;2023-07-31T02:04:47;100490.69;;;26.54;79.51
46955;BME280;32708;51.212;6.788;2023-07-31T02:07:13;100495.00;;;26.75;79.47
46955;BME280;32708;51.212;6.788;2023-07-31T02:09:39;100488.44;;;26.09;82.39
46955;BME280;32708;51.212;6.788;2023-07-31T02:12:05;100491.63;;;26.47;80.68
46955;BME280;32708;51.212;6.788;2023-07-31T02:14:31;100491.97;;;26.49;80.54
46955;BME280;32708;51.212;6.788;2023-07-31T02:16:58;100480.69;;;26.17;81.68
46955;BME280;32708;51.212;6.788;2023-07-31T02:19:25;100481.22;;;26.48;80.17
46955;BME280;32708;51.212;6.788;2023-07-31T02:21:51;100487.69;;;27.13;79.16
46955;BME280;32708;51.212;6.788;2023-07-31T02:24:17;100489.28;;;26.46;81.75
46955;BME280;32708;51.212;6.788;2023-07-31T02:26:43;100483.69;;;26.06;81.13
46955;BME280;32708;51.212;6.788;2023-07-31T02:29:09;100484.75;;;26.32;81.10
46955;BME280;32708;51.212;6.788;2023-07-31T02:31:35;100482.94;;;26.22;81.72
46955;BME280;32708;51.212;6.788;2023-07-31T02:34:01;100486.53;;;26.42;81.31
46955;BME280;32708;51.212;6.788;2023-07-31T02:36:28;100473.31;;;27.28;77.00
46955;BME280;32708;51.212;6.788;2023-07-31T02:38:55;100482.84;;;25.89;83.28
46955;BME280;32708;51.212;6.788;2023-07-31T02:41:21;100477.13;;;26.32;80.61
46955;BME280;32708;51.212;6.788;2023-07-31T02:43:48;100472.78;;;27.33;76.71
46955;BME280;32708;51.212;6.788;2023-07-31T02:46:14;100465.78;;;26.76;80.02
46955;BME280;32708;51.212;6.788;2023-07-31T02:48:40;100458.59;;;26.91;79.80
46955;BME280;32708;51.212;6.788;2023-07-31T02:51:06;100459.09;;;26.53;81.58
46955;BME280;32708;51.212;6.788;2023-07-31T02:53:33;100461.72;;;26.44;80.61
46955;BME280;32708;51.212;6.788;2023-07-31T02:55:59;100464.19;;;26.58;81.19
46955;BME280;32708;51.212;6.788;2023-07-31T02:58:25;100467.72;;;26.95;79.64
46955;BME280;32708;51.212;6.788;2023-07-31T03:00:51;100459.97;;;27.48;77.02
46955;BME280;32708;51.212;6.788;2023-07-31T03:03:17;100453.34;;;27.71;74.71
46955;BME280;32708;51.212;6.788;2023-07-31T03:05:43;100452.31;;;26.87;79.05
46955;BME280;32708;51.212;6.788;2023-07-31T03:08:09;100457.47;;;26.72;81.32
46955;BME280;32708;51.212;6.788;2023-07-31T03:10:35;100443.19;;;26.99;78.73
46955;BME280;32708;51.212;6.788;2023-07-31T03:13:01;100455.09;;;26.54;80.82
46955;BME280;32708;51.212;6.788;2023-07-31T03:15:27;100434.97;;;26.76;79.64
46955;BME280;32708;51.212;6.788;2023-07-31T03:17:54;100454.25;;;26.38;80.66
46955;BME280;32708;51.212;6.788;2023-07-31T03:20:20;100460.47;;;26.09;83.58
46955;BME280;32708;51.212;6.788;2023-07-31T03:22:46;100453.00;;;26.91;80.21
46955;BME280;32708;51.212;6.788;2023-07-31T03:25:12;100448.81;;;27.15;78.09
46955;BME280;32708;51.212;6.788;2023-07-31T03:27:38;100459.09;;;25.97;83.16
46955;BME280;32708;51.212;6.788;2023-07-31T03:30:05;100453.25;;;26.97;79.23
46955;BME280;32708;51.212;6.788;2023-07-31T03:32:32;100453.16;;;26.68;80.58
46955;BME280;32708;51.212;6.788;2023-07-31T03:34:59;100459.22;;;26.66;81.74
46955;BME280;32708;51.212;6.788;2023-07-31T03:37:25;100449.75;;;26.60;81.19
46955;BME280;32708;51.212;6.788;2023-07-31T03:39:53;100456.47;;;26.63;79.94
46955;BME280;32708;51.212;6.788;2023-07-31T03:42:19;100448.94;;;25.87;82.78
46955;BME280;32708;51.212;6.788;2023-07-31T03:44:45;100451.44;;;26.74;81.36
46955;BME280;32708;51.212;6.788;2023-07-31T03:47:11;100443.72;;;27.27;79.00
46955;BME280;32708;51.212;6.788;2023-07-31T03:49:37;100434.44;;;27.13;78.99
46955;BME280;32708;51.212;6.788;2023-07-31T03:52:04;100435.13;;;26.69;79.77
46955;BME280;32708;51.212;6.788;2023-07-31T03:54:30;100439.50;;;27.64;76.24
46955;BME280;32708;51.212;6.788;2023-07-31T03:56:56;100437.00;;;27.08;78.73
46955;BME280;32708;51.212;6.788;2023-07-31T03:59:22;100434.84;;;26.47;81.19
46955;BME280;32708;51.212;6.788;2023-07-31T04:01:48;100407.50;;;26.87;78.89
46955;BME280;32708;51.212;6.788;2023-07-31T04:04:15;100424.72;;;27.18;77.87
46955;BME280;32708;51.212;6.788;2023-07-31T04:06:41;100426.56;;;27.54;78.55
46955;BME280;32708;51.212;6.788;2023-07-31T04:09:07;100429.91;;;27.78;75.93
46955;BME280;32708;51.212;6.788;2023-07-31T04:11:33;100423.22;;;27.13;78.15
46955;BME280;32708;51.212;6.788;2023-07-31T04:13:59;100426.03;;;26.97;79.24
46955;BME280;32708;51.212;6.788;2023-07-31T04:16:25;100425.84;;;27.37;77.79
46955;BME280;32708;51.212;6.788;2023-07-31T04:18:51;100424.00;;;26.49;81.53
46955;BME280;32708;51.212;6.788;2023-07-31T04:21:17;100428.03;;;26.12;83.79
46955;BME280;32708;51.212;6.788;2023-07-31T04:23:43;100417.56;;;26.52;81.67
46955;BME280;32708;51.212;6.788;2023-07-31T04:26:09;100420.31;;;27.33;78.91
46955;BME280;32708;51.212;6.788;2023-07-31T04:28:35;100416.66;;;27.49;80.90
46955;BME280;32708;51.212;6.788;2023-07-31T04:31:02;100406.88;;;26.96;81.13
46955;BME280;32708;51.212;6.788;2023-07-31T04:33:28;100405.81;;;27.22;79.60
46955;BME280;32708;51.212;6.788;2023-07-31T04:35:55;100413.25;;;26.96;81.17
46955;BME280;32708;51.212;6.788;2023-07-31T04:38:22;100405.84;;;27.64;78.90
46955;BME280;32708;51.212;6.788;2023-07-31T04:40:48;100406.16;;;27.53;78.11
46955;BME280;32708;51.212;6.788;2023-07-31T04:43:14;100407.13;;;27.18;79.19
46955;BME280;32708;51.212;6.788;2023-07-31T04:45:45;100405.75;;;26.60;81.41
46955;BME280;32708;51.212;6.788;2023-07-31T04:48:13;100404.50;;;26.94;81.40
46955;BME280;32708;51.212;6.788;2023-07-31T04:50:40;100411.69;;;26.63;82.87
46955;BME280;32708;51.212;6.788;2023-07-31T04:53:06;100397.47;;;27.48;78.67
46955;BME280;32708;51.212;6.788;2023-07-31T04:55:32;100397.53;;;27.89;78.20
46955;BME280;32708;51.212;6.788;2023-07-31T04:57:59;100386.91;;;27.68;77.22
46955;BME280;32708;51.212;6.788;2023-07-31T05:00:25;100381.16;;;27.59;78.21
46955;BME280;32708;51.212;6.788;2023-07-31T05:02:52;100369.44;;;27.48;77.65
46955;BME280;32708;51.212;6.788;2023-07-31T05:05:18;100372.91;;;27.39;78.90
46955;BME280;32708;51.212;6.788;2023-07-31T05:07:44;100368.38;;;27.58;78.45
46955;BME280;32708;51.212;6.788;2023-07-31T05:10:10;100365.78;;;27.63;76.87
46955;BME280;32708;51.212;6.788;2023-07-31T05:12:36;100362.94;;;27.22;79.16
46955;BME280;32708;51.212;6.788;2023-07-31T05:15:03;100353.19;;;26.97;79.75
46955;BME280;32708;51.212;6.788;2023-07-31T05:17:30;100353.06;;;28.13;76.23
46955;BME280;32708;51.212;6.788;2023-07-31T05:19:57;100349.03;;;28.14;75.98
46955;BME280;32708;51.212;6.788;2023-07-31T05:22:23;100355.09;;;27.87;76.60
46955;BME280;32708;51.212;6.788;2023-07-31T05:24:49;100354.72;;;27.31;78.37
46955;BME280;32708;51.212;6.788;2023-07-31T05:27:15;100360.69;;;27.00;80.09
46955;BME280;32708;51.212;6.788;2023-07-31T05:29:44;100348.13;;;27.92;75.92
46955;BME280;32708;51.212;6.788;2023-07-31T05:32:12;100354.72;;;27.31;79.35
46955;BME280;32708;51.212;6.788;2023-07-31T05:34:38;100342.19;;;27.90;77.07
46955;BME280;32708;51.212;6.788;2023-07-31T05:37:05;100341.59;;;27.40;78.86
46955;BME280;32708;51.212;6.788;2023-07-31T05:39:32;100335.03;;;27.18;78.73
46955;BME280;32708;51.212;6.788;2023-07-31T05:41:58;100328.91;;;27.65;77.87
46955;BME280;32708;51.212;6.788;2023-07-31T05:44:24;100319.75;;;27.90;76.52
46955;BME280;32708;51.212;6.788;2023-07-31T05:46:50;100313.56;;;28.20;75.29
46955;BME280;32708;51.212;6.788;2023-07-31T05:49:16;100314.81;;;27.39;78.91
46955;BME280;32708;51.212;6.788;2023-07-31T05:51:42;100329.50;;;27.85;76.93
46955;BME280;32708;51.212;6.788;2023-07-31T05:54:08;100323.03;;;27.59;76.79
46955;BME280;32708;51.212;6.788;2023-07-31T05:56:34;100328.47;;;27.92;76.77
46955;BME280;32708;51.212;6.788;2023-07-31T05:59:01;100322.03;;;27.53;77.85
46955;BME280;32708;51.212;6.788;2023-07-31T06:01:28;100329.91;;;27.58;75.97
46955;BME280;32708;51.212;6.788;2023-07-31T06:03:54;100324.13;;;27.36;78.00
46955;BME280;32708;51.212;6.788;2023-07-31T06:06:20;100321.69;;;27.64;77.45
46955;BME280;32708;51.212;6.788;2023-07-31T06:08:47;100326.44;;;26.80;80.95
46955;BME280;32708;51.212;6.788;2023-07-31T06:11:13;100337.47;;;26.38;84.02
46955;BME280;32708;51.212;6.788;2023-07-31T06:13:39;100334.28;;;26.85;81.56
46955;BME280;32708;51.212;6.788;2023-07-31T06:16:05;100335.91;;;26.53;83.41
46955;BME280;32708;51.212;6.788;2023-07-31T06:18:32;100322.25;;;27.59;79.49
46955;BME280;32708;51.212;6.788;2023-07-31T06:20:59;100326.91;;;27.07;81.80
46955;BME280;32708;51.212;6.788;2023-07-31T06:23:25;100326.97;;;26.42;84.94
46955;BME280;32708;51.212;6.788;2023-07-31T06:25:51;100331.53;;;26.69;83.41
46955;BME280;32708;51.212;6.788;2023-07-31T06:28:17;100326.13;;;27.36;82.04
46955;BME280;32708;51.212;6.788;2023-07-31T06:30:43;100332.69;;;25.86;87.75
46955;BME280;32708;51.212;6.788;2023-07-31T06:33:09;100333.34;;;27.21;82.79
46955;BME280;32708;51.212;6.788;2023-07-31T06:35:35;100334.66;;;26.71;85.49
46955;BME280;32708;51.212;6.788;2023-07-31T06:38:02;100330.22;;;27.19;84.07
46955;BME280;32708;51.212;6.788;2023-07-31T06:40:29;100341.16;;;27.29;83.88
46955;BME280;32708;51.212;6.788;2023-07-31T06:42:55;100337.03;;;26.23;87.16
46955;BME280;32708;51.212;6.788;2023-07-31T06:45:22;100335.03;;;26.40;87.52
46955;BME280;32708;51.212;6.788;2023-07-31T06:47:49;100335.88;;;26.70;85.42
46955;BME280;32708;51.212;6.788;2023-07-31T06:50:15;100331.16;;;26.50;86.08
46955;BME280;32708;51.212;6.788;2023-07-31T06:52:41;100327.47;;;26.86;84.55
46955;BME280;32708;51.212;6.788;2023-07-31T06:55:20;100321.19;;;26.49;85.61
46955;BME280;32708;51.212;6.788;2023-07-31T06:57:52;100330.84;;;26.48;85.78
46955;BME280;32708;51.212;6.788;2023-07-31T07:00:20;100326.56;;;27.05;83.80
46955;BME280;32708;51.212;6.788;2023-07-31T07:02:47;100330.88;;;27.10;83.51
46955;BME280;32708;51.212;6.788;2023-07-31T07:05:14;100341.63;;;26.95;83.84
46955;BME280;32708;51.212;6.788;2023-07-31T07:07:40;100333.69;;;26.94;83.95
46955;BME280;32708;51.212;6.788;2023-07-31T07:10:08;100339.00;;;27.04;83.55
46955;BME280;32708;51.212;6.788;2023-07-31T07:12:35;100327.41;;;27.19;83.08
46955;BME280;32708;51.212;6.788;2023-07-31T07:15:03;100324.75;;;26.82;85.74
46955;BME280;32708;51.212;6.788;2023-07-31T07:17:31;100329.50;;;27.14;85.19
46955;BME280;32708;51.212;6.788;2023-07-31T07:19:58;100319.97;;;26.67;85.81
46955;BME280;32708;51.212;6.788;2023-07-31T07:22:26;100321.66;;;27.09;83.41
46955;BME280;32708;51.212;6.788;2023-07-31T07:24:53;100314.97;;;26.74;85.59
46955;BME280;32708;51.212;6.788;2023-07-31T07:27:19;100314.38;;;26.67;85.92
46955;BME280;32708;51.212;6.788;2023-07-31T07:29:46;100319.41;;;27.04;84.25
46955;BME280;32708;51.212;6.788;2023-07-31T07:32:13;100313.91;;;27.30;82.11
46955;BME280;32708;51.212;6.788;2023-07-31T07:34:39;100309.56;;;27.54;82.65
46955;BME280;32708;51.212;6.788;2023-07-31T07:37:05;100315.63;;;27.11;84.46
46955;BME280;32708;51.212;6.788;2023-07-31T07:39:32;100323.75;;;26.60;86.95
46955;BME280;32708;51.212;6.788;2023-07-31T07:41:58;100321.56;;;27.13;84.95
46955;BME280;32708;51.212;6.788;2023-07-31T07:44:24;100331.56;;;26.98;85.84
46955;BME280;32708;51.212;6.788;2023-07-31T07:46:50;100325.41;;;26.57;87.80
46955;BME280;32708;51.212;6.788;2023-07-31T07:49:19;100324.75;;;26.82;85.28
46955;BME280;32708;51.212;6.788;2023-07-31T07:51:45;100341.69;;;26.46;88.35
46955;BME280;32708;51.212;6.788;2023-07-31T07:54:11;100329.06;;;26.71;87.74
46955;BME280;32708;51.212;6.788;2023-07-31T07:56:45;100317.94;;;26.34;88.28
46955;BME280;32708;51.212;6.788;2023-07-31T07:59:11;100320.47;;;26.29;88.93
46955;BME280;32708;51.212;6.788;2023-07-31T08:01:38;100313.91;;;26.03;90.07
46955;BME280;32708;51.212;6.788;2023-07-31T08:04:04;100324.91;;;26.46;88.74
46955;BME280;32708;51.212;6.788;2023-07-31T08:06:32;100315.25;;;26.31;89.44
46955;BME280;32708;51.212;6.788;2023-07-31T08:08:59;100312.00;;;26.16;90.33
46955;BME280;32708;51.212;6.788;2023-07-31T08:11:31;100313.31;;;26.12;89.83
46955;BME280;32708;51.212;6.788;2023-07-31T08:13:58;100303.97;;;26.67;87.50
46955;BME280;32708;51.212;6.788;2023-07-31T08:16:25;100302.03;;;26.15;89.00
46955;BME280;32708;51.212;6.788;2023-07-31T08:18:51;100300.94;;;25.93;89.16
46955;BME280;32708;51.212;6.788;2023-07-31T08:21:17;100295.13;;;26.20;88.53
46955;BME280;32708;51.212;6.788;2023-07-31T08:23:43;100299.38;;;25.92;90.38
46955;BME280;32708;51.212;6.788;2023-07-31T08:26:18;100298.31;;;26.83;86.16
46955;BME280;32708;51.212;6.788;2023-07-31T08:28:45;100278.16;;;26.43;87.83
46955;BME280;32708;51.212;6.788;2023-07-31T08:31:11;100286.06;;;26.94;86.75
46955;BME280;32708;51.212;6.788;2023-07-31T08:33:38;100292.84;;;26.31;89.11
46955;BME280;32708;51.212;6.788;2023-07-31T08:36:06;100279.56;;;26.02;89.27
46955;BME280;32708;51.212;6.788;2023-07-31T08:38:33;100284.88;;;25.41;90.46
46955;BME280;32708;51.212;6.788;2023-07-31T08:40:59;100287.84;;;26.06;89.04
46955;BME280;32708;51.212;6.788;2023-07-31T08:43:30;100292.75;;;26.02;89.15
46955;BME280;32708;51.212;6.788;2023-07-31T08:45:57;100290.97;;;25.92;89.69
46955;BME280;32708;51.212;6.788;2023-07-31T08:48:24;100293.09;;;26.20;89.01
46955;BME280;32708;51.212;6.788;2023-07-31T08:50:52;100283.03;;;25.90;89.24
46955;BME280;32708;51.212;6.788;2023-07-31T08:53:19;100282.19;;;26.10;89.18
46955;BME280;32708;51.212;6.788;2023-07-31T08:55:48;100283.50;;;26.38;88.39
46955;BME280;32708;51.212;6.788;2023-07-31T08:58:17;100281.13;;;25.87;89.57
46955;BME280;32708;51.212;6.788;2023-07-31T09:00:48;100280.44;;;26.48;88.16
46955;BME280;32708;51.212;6.788;2023-07-31T09:03:17;100290.63;;;25.90;89.90
46955;BME280;32708;51.212;6.788;2023-07-31T09:05:46;100291.19;;;25.65;91.38
46955;BME280;32708;51.212;6.788;2023-07-31T09:08:18;100297.13;;;26.03;89.91
46955;BME280;32708;51.212;6.788;2023-07-31T09:10:46;100297.41;;;26.57;88.73
46955;BME280;32708;51.212;6.788;2023-07-31T09:13:14;100298.34;;;25.66;90.91
46955;BME280;32708;51.212;6.788;2023-07-31T09:15:46;100289.63;;;26.49;89.47
46955;BME280;32708;51.212;6.788;2023-07-31T09:18:15;100292.41;;;26.49;89.38
46955;BME280;32708;51.212;6.788;2023-07-31T09:20:44;100291.41;;;26.72;89.64
46955;BME280;32708;51.212;6.788;2023-07-31T09:23:13;100284.66;;;26.85;88.05
46955;BME280;32708;51.212;6.788;2023-07-31T09:25:44;100279.16;;;26.82;87.57
46955;BME280;32708;51.212;6.788;2023-07-31T09:28:11;100281.28;;;26.29;91.32
46955;BME280;32708;51.212;6.788;2023-07-31T09:30:50;100289.75;;;25.93;92.93
46955;BME280;32708;51.212;6.788;2023-07-31T09:33:18;100290.22;;;26.08;91.30
46955;BME280;32708;51.212;6.788;2023-07-31T09:35:45;100280.06;;;26.14;91.13
46955;BME280;32708;51.212;6.788;2023-07-31T09:38:15;100273.28;;;26.47;90.50
46955;BME280;32708;51.212;6.788;2023-07-31T09:40:46;100265.88;;;26.70;89.05
46955;BME280;32708;51.212;6.788;2023-07-31T09:43:18;100270.72;;;26.37;90.57
46955;BME280;32708;51.212;6.788;2023-07-31T09:45:46;100276.50;;;25.41;95.13
46955;BME280;32708;51.212;6.788;2023-07-31T09:48:18;100265.84;;;26.41;90.50
46955;BME280;32708;51.212;6.788;2023-07-31T09:50:48;100262.50;;;26.29;91.38
46955;BME280;32708;51.212;6.788;2023-07-31T09:53:16;100270.63;;;26.24;92.22
46955;BME280;32708;51.212;6.788;2023-07-31T09:55:43;100271.50;;;26.04;92.83
46955;BME280;32708;51.212;6.788;2023-07-31T09:58:11;100264.22;;;25.74;94.15
46955;BME280;32708;51.212;6.788;2023-07-31T10:00:38;100265.41;;;26.10;93.57
46955;BME280;32708;51.212;6.788;2023-07-31T10:03:09;100265.13;;;26.37;93.27
46955;BME280;32708;51.212;6.788;2023-07-31T10:05:49;100260.53;;;25.77;94.86
46955;BME280;32708;51.212;6.788;2023-07-31T10:08:18;100255.22;;;25.99;92.63
46955;BME280;32708;51.212;6.788;2023-07-31T10:10:46;100265.47;;;25.53;94.69
46955;BME280;32708;51.212;6.788;2023-07-31T10:13:13;100258.03;;;26.48;91.17
46955;BME280;32708;51.212;6.788;2023-07-31T10:15:41;100253.09;;;26.69;90.58
46955;BME280;32708;51.212;6.788;2023-07-31T10:18:10;100259.50;;;26.69;90.03
46955;BME280;32708;51.212;6.788;2023-07-31T10:20:37;100262.84;;;26.31;90.92
46955;BME280;32708;51.212;6.788;2023-07-31T10:23:04;100268.88;;;26.63;91.29
46955;BME280;32708;51.212;6.788;2023-07-31T10:25:31;100260.72;;;26.35;91.03
46955;BME280;32708;51.212;6.788;2023-07-31T10:27:58;100247.06;;;26.99;88.57
46955;BME280;32708;51.212;6.788;2023-07-31T10:30:32;100247.50;;;26.69;89.05
46955;BME280;32708;51.212;6.788;2023-07-31T10:33:02;100241.88;;;27.27;87.59
46955;BME280;32708;51.212;6.788;2023-07-31T10:35:28;100244.53;;;27.05;87.24
46955;BME280;32708;51.212;6.788;2023-07-31T10:37:55;100237.25;;;27.87;85.21
46955;BME280;32708;51.212;6.788;2023-07-31T10:40:27;100236.16;;;27.72;86.70
46955;BME280;32708;51.212;6.788;2023-07-31T10:42:55;100227.72;;;28.79;82.65
46955;BME280;32708;51.212;6.788;2023-07-31T10:48:13;100236.09;;;28.92;82.89
46955;BME280;32708;51.212;6.788;2023-07-31T10:50:52;100224.47;;;27.86;84.66
46955;BME280;32708;51.212;6.788;2023-07-31T10:53:32;100224.75;;;28.14;84.52
46955;BME280;32708;51.212;6.788;2023-07-31T10:58:26;100230.94;;;27.45;85.53
46955;BME280;32708;51.212;6.788;2023-07-31T11:00:59;100225.50;;;28.40;82.93
46955;BME280;32708;51.212;6.788;2023-07-31T11:03:41;100223.66;;;27.86;84.63
46955;BME280;32708;51.212;6.788;2023-07-31T11:06:09;100218.78;;;28.37;81.41
46955;BME280;32708;51.212;6.788;2023-07-31T11:08:43;100222.88;;;27.60;84.19
46955;BME280;32708;51.212;6.788;2023-07-31T11:11:13;100223.88;;;27.91;82.38
46955;BME280;32708;51.212;6.788;2023-07-31T11:13:48;100220.31;;;28.51;79.96
46955;BME280;32708;51.212;6.788;2023-07-31T11:16:25;100216.34;;;27.50;83.77
46955;BME280;32708;51.212;6.788;2023-07-31T11:18:53;100229.91;;;27.26;84.48
46955;BME280;32708;51.212;6.788;2023-07-31T11:21:25;100228.03;;;27.61;83.76
46955;BME280;32708;51.212;6.788;2023-07-31T11:23:56;100227.09;;;27.26;83.58
46955;BME280;32708;51.212;6.788;2023-07-31T11:26:24;100230.50;;;27.59;83.29
46955;BME280;32708;51.212;6.788;2023-07-31T11:28:51;100225.91;;;27.53;82.38
46955;BME280;32708;51.212;6.788;2023-07-31T11:31:18;100213.81;;;28.29;80.38
46955;BME280;32708;51.212;6.788;2023-07-31T11:33:44;100213.34;;;27.95;82.14
46955;BME280;32708;51.212;6.788;2023-07-31T11:36:19;100229.19;;;26.80;86.13
46955;BME280;32708;51.212;6.788;2023-07-31T11:38:47;100207.19;;;27.88;81.49
46955;BME280;32708;51.212;6.788;2023-07-31T11:41:18;100205.03;;;27.66;82.85
46955;BME280;32708;51.212;6.788;2023-07-31T11:43:46;100214.13;;;27.70;82.43
46955;BME280;32708;51.212;6.788;2023-07-31T11:46:13;100194.53;;;28.65;79.00
46955;BME280;32708;51.212;6.788;2023-07-31T11:48:40;100200.00;;;27.87;81.15
46955;BME280;32708;51.212;6.788;2023-07-31T11:51:12;100199.53;;;27.37;82.45
46955;BME280;32708;51.212;6.788;2023-07-31T11:56:13;100197.38;;;28.52;79.52
46955;BME280;32708;51.212;6.788;2023-07-31T11:58:41;100193.44;;;28.15;79.77
46955;BME280;32708;51.212;6.788;2023-07-31T12:01:09;100192.69;;;27.89;81.76
46955;BME280;32708;51.212;6.788;2023-07-31T12:03:35;100188.78;;;28.21;79.86
46955;BME280;32708;51.212;6.788;2023-07-31T12:06:02;100190.25;;;28.39;77.45
46955;BME280;32708;51.212;6.788;2023-07-31T12:08:29;100194.63;;;27.80;80.98
46955;BME280;32708;51.212;6.788;2023-07-31T12:11:04;100180.63;;;28.14;79.52
46955;BME280;32708;51.212;6.788;2023-07-31T12:13:33;100191.13;;;27.76;81.57
46955;BME280;32708;51.212;6.788;2023-07-31T12:16:03;100193.25;;;27.46;82.78
46955;BME280;32708;51.212;6.788;2023-07-31T12:18:35;100192.81;;;27.48;82.76
46955;BME280;32708;51.212;6.788;2023-07-31T12:21:06;100183.72;;;29.08;76.88
46955;BME280;32708;51.212;6.788;2023-07-31T12:23:36;100181.53;;;28.59;78.81
46955;BME280;32708;51.212;6.788;2023-07-31T12:26:17;100184.59;;;29.17;77.03
46955;BME280;32708;51.212;6.788;2023-07-31T12:28:50;100194.66;;;28.14;80.93
46955;BME280;32708;51.212;6.788;2023-07-31T12:31:21;100185.16;;;27.99;82.25
46955;BME280;32708;51.212;6.788;2023-07-31T12:33:51;100191.34;;;27.94;81.50
46955;BME280;32708;51.212;6.788;2023-07-31T12:36:21;100205.78;;;27.29;85.21
46955;BME280;32708;51.212;6.788;2023-07-31T12:38:49;100196.03;;;27.08;87.35
46955;BME280;32708;51.212;6.788;2023-07-31T12:41:16;100184.06;;;27.84;83.58
46955;BME280;32708;51.212;6.788;2023-07-31T12:43:44;100194.69;;;28.02;83.46
46955;BME280;32708;51.212;6.788;2023-07-31T12:46:11;100181.78;;;28.04;82.20
46955;BME280;32708;51.212;6.788;2023-07-31T12:48:39;100187.72;;;28.54;81.71
46955;BME280;32708;51.212;6.788;2023-07-31T12:51:05;100161.03;;;28.02;81.73
46955;BME280;32708;51.212;6.788;2023-07-31T12:53:35;100170.31;;;28.11;82.06
46955;BME280;32708;51.212;6.788;2023-07-31T12:56:02;100169.63;;;28.55;80.69
46955;BME280;32708;51.212;6.788;2023-07-31T12:58:28;100165.03;;;28.48;79.95
46955;BME280;32708;51.212;6.788;2023-07-31T13:00:54;100157.34;;;28.61;78.87
46955;BME280;32708;51.212;6.788;2023-07-31T13:03:20;100143.53;;;29.29;77.16
46955;BME280;32708;51.212;6.788;2023-07-31T13:05:47;100133.66;;;29.15;77.59